sensor_id;sensor_type;location;lat;lon;timestamp;temperature;humidity
56374;DHT22;58212;47.034;7.376;2022-10-30T00:00:10;13.00;99.90
56374;DHT22;58212;47.034;7.376;2022-10-30T00:02:40;13.00;99.90
56374;DHT22;58212;47.034;7.376;2022-10-30T00:05:09;13.00;99.90
56374;DHT22;58212;47.034;7.376;2022-10-30T00:07:36;13.00;99.90
56374;DHT22;58212;47.034;7.376;2022-10-30T00:10:05;13.00;99.90
56374;DHT22;58212;47.034;7.376;2022-10-30T00:12:33;13.00;99.90
56374;DHT22;58212;47.034;7.376;2022-10-30T00:15:00;13.00;99.90
56374;DHT22;58212;47.034;7.376;2022-10-30T00:17:27;13.00;99.90
56374;DHT22;58212;47.034;7.376;2022-10-30T00:19:55;13.00;99.90
56374;DHT22;58212;47.034;7.376;2022-10-30T00:22:24;13.00;99.90
56374;DHT22;58212;47.034;7.376;2022-10-30T00:24:52;13.00;99.90
56374;DHT22;58212;47.034;7.376;2022-10-30T00:27:19;13.00;99.90
56374;DHT22;58212;47.034;7.376;2022-10-30T00:29:47;13.00;99.90
56374;DHT22;58212;47.034;7.376;2022-10-30T00:32:14;12.90;99.90
56374;DHT22;58212;47.034;7.376;2022-10-30T00:34:42;12.90;99.90
56374;DHT22;58212;47.034;7.376;2022-10-30T00:37:10;12.90;99.90
56374;DHT22;58212;47.034;7.376;2022-10-30T00:39:40;12.90;99.90
56374;DHT22;58212;47.034;7.376;2022-10-30T00:42:11;12.90;99.90
56374;DHT22;58212;47.034;7.376;2022-10-30T00:44:44;13.00;99.90
56374;DHT22;58212;47.034;7.376;2022-10-30T00:47:19;13.00;99.90
56374;DHT22;58212;47.034;7.376;2022-10-30T00:49:54;13.00;99.90
56374;DHT22;58212;47.034;7.376;2022-10-30T00:52:25;13.00;99.90
56374;DHT22;58212;47.034;7.376;2022-10-30T00:54:57;12.90;99.90
56374;DHT22;58212;47.034;7.376;2022-10-30T00:57:27;12.80;99.90
56374;DHT22;58212;47.034;7.376;2022-10-30T00:59:57;12.80;99.90
56374;DHT22;58212;47.034;7.376;2022-10-30T01:02:27;12.80;99.90
56374;DHT22;58212;47.034;7.376;2022-10-30T01:04:55;12.90;99.90
56374;DHT22;58212;47.034;7.376;2022-10-30T01:07:22;12.80;99.90
56374;DHT22;58212;47.034;7.376;2022-10-30T01:09:50;12.80;99.90
56374;DHT22;58212;47.034;7.376;2022-10-30T01:12:18;12.80;99.90
56374;DHT22;58212;47.034;7.376;2022-10-30T01:14:49;12.80;99.90
56374;DHT22;58212;47.034;7.376;2022-10-30T01:17:34;12.80;99.90
56374;DHT22;58212;47.034;7.376;2022-10-30T01:20:15;12.80;99.90
56374;DHT22;58212;47.034;7.376;2022-10-30T01:22:54;12.80;99.90
56374;DHT22;58212;47.034;7.376;2022-10-30T01:25:41;12.80;99.90
56374;DHT22;58212;47.034;7.376;2022-10-30T01:28:25;12.80;99.90
56374;DHT22;58212;47.034;7.376;2022-10-30T01:31:05;12.90;99.90
56374;DHT22;58212;47.034;7.376;2022-10-30T01:33:44;12.90;99.90
56374;DHT22;58212;47.034;7.376;2022-10-30T01:36:18;12.80;99.90
56374;DHT22;58212;47.034;7.376;2022-10-30T01:38:49;12.80;99.90
56374;DHT22;58212;47.034;7.376;2022-10-30T01:41:19;12.80;99.90
56374;DHT22;58212;47.034;7.376;2022-10-30T01:43:52;12.80;99.90
56374;DHT22;58212;47.034;7.376;2022-10-30T01:46:44;12.80;99.90
56374;DHT22;58212;47.034;7.376;2022-10-30T01:49:34;12.80;99.90
56374;DHT22;58212;47.034;7.376;2022-10-30T01:52:12;12.80;99.90
56374;DHT22;58212;47.034;7.376;2022-10-30T01:54:56;12.80;99.90
56374;DHT22;58212;47.034;7.376;2022-10-30T01:57:33;12.80;99.90
56374;DHT22;58212;47.034;7.376;2022-10-30T02:00:09;12.70;99.90
56374;DHT22;58212;47.034;7.376;2022-10-30T02:02:40;12.60;99.90
56374;DHT22;58212;47.034;7.376;2022-10-30T02:05:16;12.50;99.90
56374;DHT22;58212;47.034;7.376;2022-10-30T02:07:46;12.50;99.90
56374;DHT22;58212;47.034;7.376;2022-10-30T02:10:15;12.50;99.90
56374;DHT22;58212;47.034;7.376;2022-10-30T02:12:43;12.50;99.90
56374;DHT22;58212;47.034;7.376;2022-10-30T02:15:14;12.50;99.90
56374;DHT22;58212;47.034;7.376;2022-10-30T02:17:46;12.60;99.90
56374;DHT22;58212;47.034;7.376;2022-10-30T02:20:17;12.60;99.90
56374;DHT22;58212;47.034;7.376;2022-10-30T02:22:47;12.60;99.90
56374;DHT22;58212;47.034;7.376;2022-10-30T02:25:15;12.60;99.90
56374;DHT22;58212;47.034;7.376;2022-10-30T02:27:44;12.60;99.90
56374;DHT22;58212;47.034;7.376;2022-10-30T02:30:12;12.60;99.90
56374;DHT22;58212;47.034;7.376;2022-10-30T02:32:42;12.60;99.90
56374;DHT22;58212;47.034;7.376;2022-10-30T02:35:12;12.60;99.90
56374;DHT22;58212;47.034;7.376;2022-10-30T02:37:42;12.60;99.90
56374;DHT22;58212;47.034;7.376;2022-10-30T02:40:10;12.60;99.90
56374;DHT22;58212;47.034;7.376;2022-10-30T02:42:38;12.50;99.90
56374;DHT22;58212;47.034;7.376;2022-10-30T02:45:06;12.50;99.90
56374;DHT22;58212;47.034;7.376;2022-10-30T02:47:34;12.50;99.90
56374;DHT22;58212;47.034;7.376;2022-10-30T02:50:01;12.50;99.90
56374;DHT22;58212;47.034;7.376;2022-10-30T02:52:30;12.60;99.90
56374;DHT22;58212;47.034;7.376;2022-10-30T02:55:03;12.50;99.90
56374;DHT22;58212;47.034;7.376;2022-10-30T02:57:32;12.50;99.90
56374;DHT22;58212;47.034;7.376;2022-10-30T03:00:00;12.50;99.90
56374;DHT22;58212;47.034;7.376;2022-10-30T03:02:29;12.50;99.90
56374;DHT22;58212;47.034;7.376;2022-10-30T03:04:56;12.50;99.90
56374;DHT22;58212;47.034;7.376;2022-10-30T03:07:25;12.50;99.90
56374;DHT22;58212;47.034;7.376;2022-10-30T03:09:52;12.40;99.90
56374;DHT22;58212;47.034;7.376;2022-10-30T03:12:21;12.40;99.90
56374;DHT22;58212;47.034;7.376;2022-10-30T03:14:51;12.40;99.90
56374;DHT22;58212;47.034;7.376;2022-10-30T03:17:18;12.50;99.90
56374;DHT22;58212;47.034;7.376;2022-10-30T03:19:48;12.40;99.90
56374;DHT22;58212;47.034;7.376;2022-10-30T03:22:18;12.40;99.90
56374;DHT22;58212;47.034;7.376;2022-10-30T03:24:47;12.40;99.90
56374;DHT22;58212;47.034;7.376;2022-10-30T03:27:15;12.40;99.90
56374;DHT22;58212;47.034;7.376;2022-10-30T03:29:44;12.40;99.90
56374;DHT22;58212;47.034;7.376;2022-10-30T03:32:12;12.40;99.90
56374;DHT22;58212;47.034;7.376;2022-10-30T03:34:45;12.30;99.90
56374;DHT22;58212;47.034;7.376;2022-10-30T03:37:12;12.40;99.90
56374;DHT22;58212;47.034;7.376;2022-10-30T03:39:39;12.30;99.90
56374;DHT22;58212;47.034;7.376;2022-10-30T03:42:06;12.30;99.90
56374;DHT22;58212;47.034;7.376;2022-10-30T03:44:33;12.40;99.90
56374;DHT22;58212;47.034;7.376;2022-10-30T03:47:04;12.40;99.90
56374;DHT22;58212;47.034;7.376;2022-10-30T03:49:37;12.40;99.90
56374;DHT22;58212;47.034;7.376;2022-10-30T03:52:10;12.30;99.90
56374;DHT22;58212;47.034;7.376;2022-10-30T03:54:37;12.20;99.90
56374;DHT22;58212;47.034;7.376;2022-10-30T03:57:04;12.30;99.90
56374;DHT22;58212;47.034;7.376;2022-10-30T04:00:02;12.40;99.90
56374;DHT22;58212;47.034;7.376;2022-10-30T04:02:54;12.30;99.90
56374;DHT22;58212;47.034;7.376;2022-10-30T04:05:23;12.40;99.90
56374;DHT22;58212;47.034;7.376;2022-10-30T04:07:57;12.30;99.90
56374;DHT22;58212;47.034;7.376;2022-10-30T04:10:26;12.20;99.90
56374;DHT22;58212;47.034;7.376;2022-10-30T04:12:59;12.20;99.90
56374;DHT22;58212;47.034;7.376;2022-10-30T04:15:29;12.20;99.90
56374;DHT22;58212;47.034;7.376;2022-10-30T04:18:02;12.20;99.90
56374;DHT22;58212;47.034;7.376;2022-10-30T04:20:34;12.10;99.90
56374;DHT22;58212;47.034;7.376;2022-10-30T04:23:02;12.20;99.90
56374;DHT22;58212;47.034;7.376;2022-10-30T04:25:32;12.20;99.90
56374;DHT22;58212;47.034;7.376;2022-10-30T04:28:00;12.20;99.90
56374;DHT22;58212;47.034;7.376;2022-10-30T04:30:28;12.30;99.90
56374;DHT22;58212;47.034;7.376;2022-10-30T04:33:01;12.30;99.90
56374;DHT22;58212;47.034;7.376;2022-10-30T04:35:32;12.40;99.90
56374;DHT22;58212;47.034;7.376;2022-10-30T04:38:01;12.30;99.90
56374;DHT22;58212;47.034;7.376;2022-10-30T04:40:35;12.30;99.90
56374;DHT22;58212;47.034;7.376;2022-10-30T04:43:06;12.30;99.90
56374;DHT22;58212;47.034;7.376;2022-10-30T04:45:34;12.20;99.90
56374;DHT22;58212;47.034;7.376;2022-10-30T04:48:05;12.20;99.90
56374;DHT22;58212;47.034;7.376;2022-10-30T04:50:36;12.10;99.90
56374;DHT22;58212;47.034;7.376;2022-10-30T04:53:07;12.00;99.90
56374;DHT22;58212;47.034;7.376;2022-10-30T04:55:37;12.00;99.90
56374;DHT22;58212;47.034;7.376;2022-10-30T04:58:04;12.00;99.90
56374;DHT22;58212;47.034;7.376;2022-10-30T05:00:36;11.90;99.90
56374;DHT22;58212;47.034;7.376;2022-10-30T05:03:18;11.90;99.90
56374;DHT22;58212;47.034;7.376;2022-10-30T05:05:45;12.00;99.90
56374;DHT22;58212;47.034;7.376;2022-10-30T05:08:13;12.00;99.90
56374;DHT22;58212;47.034;7.376;2022-10-30T05:10:40;12.00;99.90
56374;DHT22;58212;47.034;7.376;2022-10-30T05:13:09;12.00;99.90
56374;DHT22;58212;47.034;7.376;2022-10-30T05:15:37;12.00;99.90
56374;DHT22;58212;47.034;7.376;2022-10-30T05:18:04;12.10;99.90
56374;DHT22;58212;47.034;7.376;2022-10-30T05:20:33;12.10;99.90
56374;DHT22;58212;47.034;7.376;2022-10-30T05:23:00;12.00;99.90
56374;DHT22;58212;47.034;7.376;2022-10-30T05:25:27;11.90;99.90
56374;DHT22;58212;47.034;7.376;2022-10-30T05:27:58;11.80;99.90
56374;DHT22;58212;47.034;7.376;2022-10-30T05:30:26;11.80;99.90
56374;DHT22;58212;47.034;7.376;2022-10-30T05:32:57;11.70;99.90
56374;DHT22;58212;47.034;7.376;2022-10-30T05:35:24;11.80;99.90
56374;DHT22;58212;47.034;7.376;2022-10-30T05:37:56;11.80;99.90
56374;DHT22;58212;47.034;7.376;2022-10-30T05:40:27;11.80;99.90
56374;DHT22;58212;47.034;7.376;2022-10-30T05:42:55;11.70;99.90
56374;DHT22;58212;47.034;7.376;2022-10-30T05:45:23;11.80;99.90
56374;DHT22;58212;47.034;7.376;2022-10-30T05:47:55;11.80;99.90
56374;DHT22;58212;47.034;7.376;2022-10-30T05:50:22;11.90;99.90
56374;DHT22;58212;47.034;7.376;2022-10-30T05:53:10;11.80;99.90
56374;DHT22;58212;47.034;7.376;2022-10-30T05:55:38;11.80;99.90
56374;DHT22;58212;47.034;7.376;2022-10-30T05:58:13;11.80;99.90
56374;DHT22;58212;47.034;7.376;2022-10-30T06:00:44;11.80;99.90
56374;DHT22;58212;47.034;7.376;2022-10-30T06:03:16;11.80;99.90
56374;DHT22;58212;47.034;7.376;2022-10-30T06:05:46;11.80;99.90
56374;DHT22;58212;47.034;7.376;2022-10-30T06:08:15;11.80;99.90
56374;DHT22;58212;47.034;7.376;2022-10-30T06:10:44;11.70;99.90
56374;DHT22;58212;47.034;7.376;2022-10-30T06:13:19;11.70;99.90
56374;DHT22;58212;47.034;7.376;2022-10-30T06:15:56;11.60;99.90
56374;DHT22;58212;47.034;7.376;2022-10-30T06:18:25;11.40;99.90
56374;DHT22;58212;47.034;7.376;2022-10-30T06:20:53;11.40;99.90
56374;DHT22;58212;47.034;7.376;2022-10-30T06:23:41;11.50;99.90
56374;DHT22;58212;47.034;7.376;2022-10-30T06:26:37;11.60;99.90
56374;DHT22;58212;47.034;7.376;2022-10-30T06:29:08;11.70;99.90
56374;DHT22;58212;47.034;7.376;2022-10-30T06:31:36;11.80;99.90
56374;DHT22;58212;47.034;7.376;2022-10-30T06:34:03;11.70;99.90
56374;DHT22;58212;47.034;7.376;2022-10-30T06:36:33;11.80;99.90
56374;DHT22;58212;47.034;7.376;2022-10-30T06:39:02;11.80;99.90
56374;DHT22;58212;47.034;7.376;2022-10-30T06:41:37;11.90;99.90
56374;DHT22;58212;47.034;7.376;2022-10-30T06:44:17;11.90;99.90
56374;DHT22;58212;47.034;7.376;2022-10-30T06:46:45;12.00;99.90
56374;DHT22;58212;47.034;7.376;2022-10-30T06:49:12;12.00;99.90
56374;DHT22;58212;47.034;7.376;2022-10-30T06:51:40;12.00;99.90
56374;DHT22;58212;47.034;7.376;2022-10-30T06:54:09;12.10;99.90
56374;DHT22;58212;47.034;7.376;2022-10-30T06:56:39;12.20;99.90
56374;DHT22;58212;47.034;7.376;2022-10-30T06:59:15;12.20;99.90
56374;DHT22;58212;47.034;7.376;2022-10-30T07:02:07;12.30;99.90
56374;DHT22;58212;47.034;7.376;2022-10-30T07:04:47;12.30;99.90
56374;DHT22;58212;47.034;7.376;2022-10-30T07:07:17;12.20;99.90
56374;DHT22;58212;47.034;7.376;2022-10-30T07:09:46;12.20;99.90
56374;DHT22;58212;47.034;7.376;2022-10-30T07:12:15;12.10;99.90
56374;DHT22;58212;47.034;7.376;2022-10-30T07:15:06;12.20;99.90
56374;DHT22;58212;47.034;7.376;2022-10-30T07:17:39;12.30;99.90
56374;DHT22;58212;47.034;7.376;2022-10-30T07:20:14;12.20;99.90
56374;DHT22;58212;47.034;7.376;2022-10-30T07:22:41;12.10;99.90
56374;DHT22;58212;47.034;7.376;2022-10-30T07:25:10;12.10;99.90
56374;DHT22;58212;47.034;7.376;2022-10-30T07:27:55;12.20;99.90
56374;DHT22;58212;47.034;7.376;2022-10-30T07:30:54;12.20;99.90
56374;DHT22;58212;47.034;7.376;2022-10-30T07:33:41;11.80;99.90
56374;DHT22;58212;47.034;7.376;2022-10-30T07:36:37;11.60;99.90
56374;DHT22;58212;47.034;7.376;2022-10-30T07:39:24;12.00;99.90
56374;DHT22;58212;47.034;7.376;2022-10-30T07:42:03;12.20;99.90
56374;DHT22;58212;47.034;7.376;2022-10-30T07:44:41;12.20;99.90
56374;DHT22;58212;47.034;7.376;2022-10-30T07:47:25;12.10;99.90
56374;DHT22;58212;47.034;7.376;2022-10-30T07:50:02;12.10;99.90
56374;DHT22;58212;47.034;7.376;2022-10-30T07:52:32;12.20;99.90
56374;DHT22;58212;47.034;7.376;2022-10-30T07:54:59;12.30;99.90
56374;DHT22;58212;47.034;7.376;2022-10-30T07:57:46;12.30;99.90
56374;DHT22;58212;47.034;7.376;2022-10-30T08:00:42;12.50;99.90
56374;DHT22;58212;47.034;7.376;2022-10-30T08:03:20;12.30;99.90
56374;DHT22;58212;47.034;7.376;2022-10-30T08:06:10;12.10;99.90
56374;DHT22;58212;47.034;7.376;2022-10-30T08:08:37;12.20;99.90
56374;DHT22;58212;47.034;7.376;2022-10-30T08:11:13;12.30;99.90
56374;DHT22;58212;47.034;7.376;2022-10-30T08:13:42;12.10;99.90
56374;DHT22;58212;47.034;7.376;2022-10-30T08:16:12;12.30;99.90
56374;DHT22;58212;47.034;7.376;2022-10-30T08:18:39;12.40;99.90
56374;DHT22;58212;47.034;7.376;2022-10-30T08:21:07;12.30;99.90
56374;DHT22;58212;47.034;7.376;2022-10-30T08:23:36;12.20;99.90
56374;DHT22;58212;47.034;7.376;2022-10-30T08:26:10;12.20;99.90
56374;DHT22;58212;47.034;7.376;2022-10-30T08:28:38;12.50;99.90
56374;DHT22;58212;47.034;7.376;2022-10-30T08:31:10;12.70;99.90
56374;DHT22;58212;47.034;7.376;2022-10-30T08:33:55;12.50;99.90
56374;DHT22;58212;47.034;7.376;2022-10-30T08:36:28;12.60;99.90
56374;DHT22;58212;47.034;7.376;2022-10-30T08:38:55;12.80;99.90
56374;DHT22;58212;47.034;7.376;2022-10-30T08:41:47;12.70;99.90
56374;DHT22;58212;47.034;7.376;2022-10-30T08:44:16;12.70;99.90
56374;DHT22;58212;47.034;7.376;2022-10-30T08:47:19;12.90;99.90
56374;DHT22;58212;47.034;7.376;2022-10-30T08:49:46;12.70;99.90
56374;DHT22;58212;47.034;7.376;2022-10-30T08:52:16;12.90;99.90
56374;DHT22;58212;47.034;7.376;2022-10-30T08:54:48;12.90;99.90
56374;DHT22;58212;47.034;7.376;2022-10-30T08:57:15;13.00;99.90
56374;DHT22;58212;47.034;7.376;2022-10-30T08:59:42;13.30;99.90
56374;DHT22;58212;47.034;7.376;2022-10-30T09:02:26;13.20;99.90
56374;DHT22;58212;47.034;7.376;2022-10-30T09:05:28;13.30;99.90
56374;DHT22;58212;47.034;7.376;2022-10-30T09:08:21;13.50;99.90
56374;DHT22;58212;47.034;7.376;2022-10-30T09:11:09;13.60;99.90
56374;DHT22;58212;47.034;7.376;2022-10-30T09:13:36;13.90;99.90
56374;DHT22;58212;47.034;7.376;2022-10-30T09:16:06;13.90;99.90
56374;DHT22;58212;47.034;7.376;2022-10-30T09:18:36;14.00;99.90
56374;DHT22;58212;47.034;7.376;2022-10-30T09:21:04;14.20;99.90
56374;DHT22;58212;47.034;7.376;2022-10-30T09:23:37;14.40;99.90
56374;DHT22;58212;47.034;7.376;2022-10-30T09:26:37;14.40;99.90
56374;DHT22;58212;47.034;7.376;2022-10-30T09:29:20;14.40;99.90
56374;DHT22;58212;47.034;7.376;2022-10-30T09:32:23;14.40;99.90
56374;DHT22;58212;47.034;7.376;2022-10-30T09:35:06;14.70;99.90
56374;DHT22;58212;47.034;7.376;2022-10-30T09:37:38;14.50;99.90
56374;DHT22;58212;47.034;7.376;2022-10-30T09:40:13;14.60;99.90
56374;DHT22;58212;47.034;7.376;2022-10-30T09:42:46;14.60;99.90
56374;DHT22;58212;47.034;7.376;2022-10-30T09:48:53;14.80;99.90
56374;DHT22;58212;47.034;7.376;2022-10-30T09:51:41;15.00;99.90
56374;DHT22;58212;47.034;7.376;2022-10-30T09:54:20;15.00;99.90
56374;DHT22;58212;47.034;7.376;2022-10-30T09:56:59;15.10;99.90
56374;DHT22;58212;47.034;7.376;2022-10-30T09:59:38;15.30;99.90
56374;DHT22;58212;47.034;7.376;2022-10-30T10:02:19;15.30;99.90
56374;DHT22;58212;47.034;7.376;2022-10-30T10:04:55;15.30;99.90
56374;DHT22;58212;47.034;7.376;2022-10-30T10:07:47;15.50;99.90
56374;DHT22;58212;47.034;7.376;2022-10-30T10:10:45;15.50;99.90
56374;DHT22;58212;47.034;7.376;2022-10-30T10:13:32;15.40;99.90
56374;DHT22;58212;47.034;7.376;2022-10-30T10:16:06;15.50;99.90
56374;DHT22;58212;47.034;7.376;2022-10-30T10:18:41;15.50;99.90
56374;DHT22;58212;47.034;7.376;2022-10-30T10:21:14;15.40;99.90
56374;DHT22;58212;47.034;7.376;2022-10-30T10:23:47;15.50;99.90
56374;DHT22;58212;47.034;7.376;2022-10-30T10:26:28;15.50;99.90
56374;DHT22;58212;47.034;7.376;2022-10-30T10:29:15;15.50;99.90
56374;DHT22;58212;47.034;7.376;2022-10-30T10:31:51;15.60;99.90
56374;DHT22;58212;47.034;7.376;2022-10-30T10:34:30;15.70;99.90
56374;DHT22;58212;47.034;7.376;2022-10-30T10:37:08;15.80;99.90
56374;DHT22;58212;47.034;7.376;2022-10-30T10:39:52;15.80;99.90
56374;DHT22;58212;47.034;7.376;2022-10-30T10:42:28;16.00;99.90
56374;DHT22;58212;47.034;7.376;2022-10-30T10:45:11;16.00;99.90
56374;DHT22;58212;47.034;7.376;2022-10-30T10:48:05;16.10;99.90
56374;DHT22;58212;47.034;7.376;2022-10-30T10:50:46;16.00;99.90
56374;DHT22;58212;47.034;7.376;2022-10-30T10:53:18;16.10;99.90
56374;DHT22;58212;47.034;7.376;2022-10-30T10:55:49;16.00;99.90
56374;DHT22;58212;47.034;7.376;2022-10-30T10:58:24;16.30;99.90
56374;DHT22;58212;47.034;7.376;2022-10-30T11:00:52;16.30;99.90
56374;DHT22;58212;47.034;7.376;2022-10-30T11:03:24;16.40;99.90
56374;DHT22;58212;47.034;7.376;2022-10-30T11:05:56;16.30;99.90
56374;DHT22;58212;47.034;7.376;2022-10-30T11:08:26;16.50;99.90
56374;DHT22;58212;47.034;7.376;2022-10-30T11:10:58;16.50;99.90
56374;DHT22;58212;47.034;7.376;2022-10-30T11:13:28;16.50;99.90
56374;DHT22;58212;47.034;7.376;2022-10-30T11:16:01;16.60;99.90
56374;DHT22;58212;47.034;7.376;2022-10-30T11:18:30;16.80;99.90
56374;DHT22;58212;47.034;7.376;2022-10-30T11:21:03;16.70;99.90
56374;DHT22;58212;47.034;7.376;2022-10-30T11:23:38;16.90;99.90
56374;DHT22;58212;47.034;7.376;2022-10-30T11:26:33;17.00;99.90
56374;DHT22;58212;47.034;7.376;2022-10-30T11:29:03;16.90;99.90
56374;DHT22;58212;47.034;7.376;2022-10-30T11:31:33;16.90;99.90
56374;DHT22;58212;47.034;7.376;2022-10-30T11:34:24;17.00;99.90
56374;DHT22;58212;47.034;7.376;2022-10-30T11:36:54;17.00;99.90
56374;DHT22;58212;47.034;7.376;2022-10-30T11:39:22;17.00;99.90
56374;DHT22;58212;47.034;7.376;2022-10-30T11:42:00;17.00;99.90
56374;DHT22;58212;47.034;7.376;2022-10-30T11:44:31;17.30;99.90
56374;DHT22;58212;47.034;7.376;2022-10-30T11:46:59;17.40;99.90
56374;DHT22;58212;47.034;7.376;2022-10-30T11:52:17;17.50;99.90
56374;DHT22;58212;47.034;7.376;2022-10-30T11:54:48;17.60;99.90
56374;DHT22;58212;47.034;7.376;2022-10-30T11:57:32;17.60;99.90
56374;DHT22;58212;47.034;7.376;2022-10-30T12:00:02;17.50;99.90
56374;DHT22;58212;47.034;7.376;2022-10-30T12:02:40;17.60;99.90
56374;DHT22;58212;47.034;7.376;2022-10-30T12:05:34;17.80;99.90
56374;DHT22;58212;47.034;7.376;2022-10-30T12:08:20;17.70;99.90
56374;DHT22;58212;47.034;7.376;2022-10-30T12:10:56;17.80;99.90
56374;DHT22;58212;47.034;7.376;2022-10-30T12:13:28;17.90;99.90
56374;DHT22;58212;47.034;7.376;2022-10-30T12:16:05;17.90;99.90
56374;DHT22;58212;47.034;7.376;2022-10-30T12:18:33;18.00;99.90
56374;DHT22;58212;47.034;7.376;2022-10-30T12:21:01;18.10;99.90
56374;DHT22;58212;47.034;7.376;2022-10-30T12:23:30;18.10;99.90
56374;DHT22;58212;47.034;7.376;2022-10-30T12:25:59;18.30;99.90
56374;DHT22;58212;47.034;7.376;2022-10-30T12:28:49;18.40;99.90
56374;DHT22;58212;47.034;7.376;2022-10-30T12:31:21;18.40;99.90
56374;DHT22;58212;47.034;7.376;2022-10-30T12:34:04;18.30;99.90
56374;DHT22;58212;47.034;7.376;2022-10-30T12:36:41;18.30;99.90
56374;DHT22;58212;47.034;7.376;2022-10-30T12:39:19;18.30;99.90
56374;DHT22;58212;47.034;7.376;2022-10-30T12:41:57;18.30;99.90
56374;DHT22;58212;47.034;7.376;2022-10-30T12:44:29;18.50;99.90
56374;DHT22;58212;47.034;7.376;2022-10-30T12:47:02;18.50;99.90
56374;DHT22;58212;47.034;7.376;2022-10-30T12:49:38;18.60;99.90
56374;DHT22;58212;47.034;7.376;2022-10-30T12:52:11;18.60;99.90
56374;DHT22;58212;47.034;7.376;2022-10-30T12:54:47;18.70;99.90
56374;DHT22;58212;47.034;7.376;2022-10-30T12:57:20;18.80;99.90
56374;DHT22;58212;47.034;7.376;2022-10-30T12:59:57;18.80;99.90
56374;DHT22;58212;47.034;7.376;2022-10-30T13:02:34;18.80;99.90
56374;DHT22;58212;47.034;7.376;2022-10-30T13:05:12;18.70;99.90
56374;DHT22;58212;47.034;7.376;2022-10-30T13:07:46;18.70;99.90
56374;DHT22;58212;47.034;7.376;2022-10-30T13:10:26;18.70;99.90
56374;DHT22;58212;47.034;7.376;2022-10-30T13:12:57;18.70;99.90
56374;DHT22;58212;47.034;7.376;2022-10-30T13:15:32;18.80;99.90
56374;DHT22;58212;47.034;7.376;2022-10-30T13:18:13;18.70;99.90
56374;DHT22;58212;47.034;7.376;2022-10-30T13:20:47;18.60;99.90
56374;DHT22;58212;47.034;7.376;2022-10-30T13:23:27;18.50;99.90
56374;DHT22;58212;47.034;7.376;2022-10-30T13:26:07;18.50;99.90
56374;DHT22;58212;47.034;7.376;2022-10-30T13:28:42;18.50;99.90
56374;DHT22;58212;47.034;7.376;2022-10-30T13:31:16;18.50;99.90
56374;DHT22;58212;47.034;7.376;2022-10-30T13:33:54;18.50;99.90
56374;DHT22;58212;47.034;7.376;2022-10-30T13:36:30;18.50;99.90
56374;DHT22;58212;47.034;7.376;2022-10-30T13:39:02;18.40;99.90
56374;DHT22;58212;47.034;7.376;2022-10-30T13:41:38;18.50;99.90
56374;DHT22;58212;47.034;7.376;2022-10-30T13:44:20;18.50;99.90
56374;DHT22;58212;47.034;7.376;2022-10-30T13:47:02;18.40;99.90
56374;DHT22;58212;47.034;7.376;2022-10-30T13:49:48;18.30;99.90
56374;DHT22;58212;47.034;7.376;2022-10-30T13:52:22;18.30;99.90
56374;DHT22;58212;47.034;7.376;2022-10-30T13:54:56;18.20;99.90
56374;DHT22;58212;47.034;7.376;2022-10-30T13:57:28;18.10;99.90
56374;DHT22;58212;47.034;7.376;2022-10-30T14:00:03;18.10;99.90
56374;DHT22;58212;47.034;7.376;2022-10-30T14:02:54;18.10;99.90
56374;DHT22;58212;47.034;7.376;2022-10-30T14:05:35;17.90;99.90
56374;DHT22;58212;47.034;7.376;2022-10-30T14:08:09;17.70;99.90
56374;DHT22;58212;47.034;7.376;2022-10-30T14:10:44;17.60;99.90
56374;DHT22;58212;47.034;7.376;2022-10-30T14:13:16;17.60;99.90
56374;DHT22;58212;47.034;7.376;2022-10-30T14:15:46;17.50;99.90
56374;DHT22;58212;47.034;7.376;2022-10-30T14:24:17;17.10;99.90
56374;DHT22;58212;47.034;7.376;2022-10-30T14:26:49;17.10;99.90
56374;DHT22;58212;47.034;7.376;2022-10-30T14:29:46;17.00;99.90
56374;DHT22;58212;47.034;7.376;2022-10-30T14:32:48;16.90;99.90
56374;DHT22;58212;47.034;7.376;2022-10-30T14:35:32;16.90;99.90
56374;DHT22;58212;47.034;7.376;2022-10-30T14:38:34;16.90;99.90
56374;DHT22;58212;47.034;7.376;2022-10-30T14:41:34;16.80;99.90
56374;DHT22;58212;47.034;7.376;2022-10-30T14:44:36;16.80;99.90
56374;DHT22;58212;47.034;7.376;2022-10-30T14:50:21;16.70;99.90
56374;DHT22;58212;47.034;7.376;2022-10-30T14:53:15;16.60;99.90
56374;DHT22;58212;47.034;7.376;2022-10-30T14:55:54;16.60;99.90
56374;DHT22;58212;47.034;7.376;2022-10-30T14:58:24;16.60;99.90
56374;DHT22;58212;47.034;7.376;2022-10-30T15:01:20;16.50;99.90
56374;DHT22;58212;47.034;7.376;2022-10-30T15:03:54;16.50;99.90
56374;DHT22;58212;47.034;7.376;2022-10-30T15:06:30;16.50;99.90
56374;DHT22;58212;47.034;7.376;2022-10-30T15:09:14;16.40;99.90
56374;DHT22;58212;47.034;7.376;2022-10-30T15:11:58;16.40;99.90
56374;DHT22;58212;47.034;7.376;2022-10-30T15:14:28;16.40;99.90
56374;DHT22;58212;47.034;7.376;2022-10-30T15:16:57;16.50;99.90
56374;DHT22;58212;47.034;7.376;2022-10-30T15:19:25;16.50;99.90
56374;DHT22;58212;47.034;7.376;2022-10-30T15:21:54;16.50;99.90
56374;DHT22;58212;47.034;7.376;2022-10-30T15:24:25;16.40;99.90
56374;DHT22;58212;47.034;7.376;2022-10-30T15:26:54;16.30;99.90
56374;DHT22;58212;47.034;7.376;2022-10-30T15:29:25;16.20;99.90
56374;DHT22;58212;47.034;7.376;2022-10-30T15:31:59;16.20;99.90
56374;DHT22;58212;47.034;7.376;2022-10-30T15:34:27;16.20;99.90
56374;DHT22;58212;47.034;7.376;2022-10-30T15:36:54;16.20;99.90
56374;DHT22;58212;47.034;7.376;2022-10-30T15:39:21;16.20;99.90
56374;DHT22;58212;47.034;7.376;2022-10-30T15:41:54;16.10;99.90
56374;DHT22;58212;47.034;7.376;2022-10-30T15:44:24;16.20;99.90
56374;DHT22;58212;47.034;7.376;2022-10-30T15:46:54;16.20;99.90
56374;DHT22;58212;47.034;7.376;2022-10-30T15:49:28;16.10;99.90
56374;DHT22;58212;47.034;7.376;2022-10-30T15:51:56;16.00;99.90
56374;DHT22;58212;47.034;7.376;2022-10-30T15:54:24;15.90;99.90
56374;DHT22;58212;47.034;7.376;2022-10-30T15:56:56;15.80;99.90
56374;DHT22;58212;47.034;7.376;2022-10-30T15:59:27;15.80;99.90
56374;DHT22;58212;47.034;7.376;2022-10-30T16:01:56;15.90;99.90
56374;DHT22;58212;47.034;7.376;2022-10-30T16:04:25;15.90;99.90
56374;DHT22;58212;47.034;7.376;2022-10-30T16:06:54;15.80;99.90
56374;DHT22;58212;47.034;7.376;2022-10-30T16:09:23;15.80;99.90
56374;DHT22;58212;47.034;7.376;2022-10-30T16:11:51;15.70;99.90
56374;DHT22;58212;47.034;7.376;2022-10-30T16:14:23;15.50;99.90
56374;DHT22;58212;47.034;7.376;2022-10-30T16:16:50;15.50;99.90
56374;DHT22;58212;47.034;7.376;2022-10-30T16:19:22;15.40;99.90
56374;DHT22;58212;47.034;7.376;2022-10-30T16:21:52;15.40;99.90
56374;DHT22;58212;47.034;7.376;2022-10-30T16:24:28;15.30;99.90
56374;DHT22;58212;47.034;7.376;2022-10-30T16:27:05;15.30;99.90
56374;DHT22;58212;47.034;7.376;2022-10-30T16:29:34;15.30;99.90